KQPA

2017-08-25 23:45:11Z

Plaintext report →

Temperature
High23.4 °C74.1 °F
Current26.9 °C80.4 °F
Low21.0 °C69.8 °F
Feels Like27.8 °C82.1 °F
Dewpoint18.0 °C64.4 °F
Winds
Speed and Direction2.8 m/s6.3 mi/h 5 kn81 °
Gust0.0 m/s0.00 mi/h 0 kn
SquallUnavailable
Pressure and Humidity
Pressure At Field Level1018.8 mb30.1 in
Pressure At Sea Level1018.8 mb30.1 in
Pressure Trend0.6 mb 0.0 in
Pressure Tendency 1
Humidity58 %

Historical

Additional Information:

  METAR KQPA 252345Z AUTO 08005KT M1/4SM SCT080 27/18 A3009 RMK AO2 SLP188
  10234 20210 51005 PWINO $=    
Cloud Cover
Layer 1 3 oktas 2440 m 8005 ft
Layer 2 Undetected
Layer 3 Undetected
Winds
2-minute Winds
Minimum1.2 m/s2.68 mi/h 2 kn63 °
Average2.8 m/s6.26 mi/h 5 kn85 °
Maximum4.4 m/s9.84 mi/h 8 kn109 °
10-minute Winds
Minimum0.9 m/s2.01 mi/h 1 kn34 °
Average2.5 m/s5.59 mi/h 4 kn89 °
Maximum4.8 m/s10.74 mi/h 9 kn136 °
Precipitation
IntensityUnavailable
Rainfall
1-hour Total0.00 mm0.00 in
3-hour Total0.00 mm0.00 in
6-hour Total0.00 mm0.00 in
24-hour Total0.00 mm0.00 in
Precipitation
1-hour TotalUnavailable
3-hour TotalUnavailable
6-hour TotalUnavailable
24-hour TotalUnavailable